sensor_id;sensor_type;location;lat;lon;timestamp;P1;P2;P0
72467;PMS3003;60626;43.582;1.470;2022-08-24T00:01:37;1.00;1.00;1.00
72467;PMS3003;60626;43.582;1.470;2022-08-24T00:04:05;1.00;1.00;1.00
72467;PMS3003;60626;43.582;1.470;2022-08-24T00:06:32;1.00;1.00;1.00
72467;PMS3003;60626;43.582;1.470;2022-08-24T00:08:59;1.00;1.00;1.00
72467;PMS3003;60626;43.582;1.470;2022-08-24T00:11:26;1.50;1.50;1.00
72467;PMS3003;60626;43.582;1.470;2022-08-24T00:13:53;1.00;1.00;1.00
72467;PMS3003;60626;43.582;1.470;2022-08-24T00:16:20;1.25;1.25;1.00
72467;PMS3003;60626;43.582;1.470;2022-08-24T00:18:47;1.00;1.00;1.00
72467;PMS3003;60626;43.582;1.470;2022-08-24T00:21:14;1.00;1.00;1.00
72467;PMS3003;60626;43.582;1.470;2022-08-24T00:23:41;3.00;1.00;1.00
72467;PMS3003;60626;43.582;1.470;2022-08-24T00:26:13;1.50;1.50;1.50
72467;PMS3003;60626;43.582;1.470;2022-08-24T00:28:40;1.25;1.25;1.00
72467;PMS3003;60626;43.582;1.470;2022-08-24T00:31:07;1.00;1.00;1.00
72467;PMS3003;60626;43.582;1.470;2022-08-24T00:33:34;1.00;1.00;1.00
72467;PMS3003;60626;43.582;1.470;2022-08-24T00:36:01;3.00;1.25;1.25
72467;PMS3003;60626;43.582;1.470;2022-08-24T00:38:30;2.00;2.00;2.00
72467;PMS3003;60626;43.582;1.470;2022-08-24T00:40:57;2.25;1.00;1.00
72467;PMS3003;60626;43.582;1.470;2022-08-24T00:43:24;2.00;2.00;2.00
72467;PMS3003;60626;43.582;1.470;2022-08-24T00:48:50;1.50;1.00;1.00
72467;PMS3003;60626;43.582;1.470;2022-08-24T00:51:21;0.50;0.50;0.50
72467;PMS3003;60626;43.582;1.470;2022-08-24T00:53:57;1.00;1.00;1.00
72467;PMS3003;60626;43.582;1.470;2022-08-24T00:56:31;0.25;0.25;0.25
72467;PMS3003;60626;43.582;1.470;2022-08-24T00:59:04;1.00;1.00;1.00
72467;PMS3003;60626;43.582;1.470;2022-08-24T01:01:36;1.00;1.00;1.00
72467;PMS3003;60626;43.582;1.470;2022-08-24T01:04:04;1.25;1.25;1.25
72467;PMS3003;60626;43.582;1.470;2022-08-24T01:06:35;1.50;1.50;1.50
72467;PMS3003;60626;43.582;1.470;2022-08-24T01:09:04;1.00;1.00;0.75
72467;PMS3003;60626;43.582;1.470;2022-08-24T01:11:32;2.00;2.00;2.00
72467;PMS3003;60626;43.582;1.470;2022-08-24T01:14:00;1.25;1.25;1.25
72467;PMS3003;60626;43.582;1.470;2022-08-24T01:16:30;2.25;2.00;1.25
72467;PMS3003;60626;43.582;1.470;2022-08-24T01:19:37;3.75;2.75;2.25
72467;PMS3003;60626;43.582;1.470;2022-08-24T01:25:05;2.00;2.00;2.00
72467;PMS3003;60626;43.582;1.470;2022-08-24T01:27:33;2.00;2.00;2.00
72467;PMS3003;60626;43.582;1.470;2022-08-24T01:30:03;2.00;2.00;2.00
72467;PMS3003;60626;43.582;1.470;2022-08-24T01:32:35;2.00;2.00;1.75
72467;PMS3003;60626;43.582;1.470;2022-08-24T01:35:02;4.00;2.25;2.00
72467;PMS3003;60626;43.582;1.470;2022-08-24T01:37:29;2.00;2.00;2.00
72467;PMS3003;60626;43.582;1.470;2022-08-24T01:39:58;2.50;2.50;2.25
72467;PMS3003;60626;43.582;1.470;2022-08-24T01:42:28;2.50;2.50;2.50
72467;PMS3003;60626;43.582;1.470;2022-08-24T01:44:55;3.00;2.50;2.00
72467;PMS3003;60626;43.582;1.470;2022-08-24T01:47:22;3.00;3.00;2.50
72467;PMS3003;60626;43.582;1.470;2022-08-24T01:49:49;2.25;2.25;2.00
72467;PMS3003;60626;43.582;1.470;2022-08-24T01:52:20;4.00;2.75;1.75
72467;PMS3003;60626;43.582;1.470;2022-08-24T01:54:49;4.50;3.00;2.25
72467;PMS3003;60626;43.582;1.470;2022-08-24T01:57:17;2.00;2.00;2.00
72467;PMS3003;60626;43.582;1.470;2022-08-24T01:59:44;2.00;2.00;2.00
72467;PMS3003;60626;43.582;1.470;2022-08-24T02:02:13;5.00;2.00;2.00
72467;PMS3003;60626;43.582;1.470;2022-08-24T02:04:43;4.25;3.00;2.25
72467;PMS3003;60626;43.582;1.470;2022-08-24T02:07:10;2.50;2.50;2.00
72467;PMS3003;60626;43.582;1.470;2022-08-24T02:09:37;2.00;2.00;2.00
72467;PMS3003;60626;43.582;1.470;2022-08-24T02:12:04;2.00;2.00;2.00
72467;PMS3003;60626;43.582;1.470;2022-08-24T02:14:32;2.25;2.00;2.00
72467;PMS3003;60626;43.582;1.470;2022-08-24T02:16:59;2.00;2.00;2.00
72467;PMS3003;60626;43.582;1.470;2022-08-24T02:19:27;3.00;2.25;1.75
72467;PMS3003;60626;43.582;1.470;2022-08-24T02:21:54;2.25;2.25;1.25
72467;PMS3003;60626;43.582;1.470;2022-08-24T02:24:21;3.00;3.00;2.75
72467;PMS3003;60626;43.582;1.470;2022-08-24T02:26:48;2.00;2.00;1.50
72467;PMS3003;60626;43.582;1.470;2022-08-24T02:29:18;3.00;3.00;2.00
72467;PMS3003;60626;43.582;1.470;2022-08-24T02:31:44;2.00;2.00;1.25
72467;PMS3003;60626;43.582;1.470;2022-08-24T02:34:11;2.75;2.75;2.25
72467;PMS3003;60626;43.582;1.470;2022-08-24T02:36:38;4.00;2.00;2.00
72467;PMS3003;60626;43.582;1.470;2022-08-24T02:39:06;3.00;3.00;2.00
72467;PMS3003;60626;43.582;1.470;2022-08-24T02:41:33;2.25;1.75;1.00
72467;PMS3003;60626;43.582;1.470;2022-08-24T02:44:01;2.50;2.50;2.00
72467;PMS3003;60626;43.582;1.470;2022-08-24T02:46:29;2.00;2.00;1.25
72467;PMS3003;60626;43.582;1.470;2022-08-24T02:48:57;2.50;1.75;1.25
72467;PMS3003;60626;43.582;1.470;2022-08-24T02:51:37;2.00;2.00;2.00
72467;PMS3003;60626;43.582;1.470;2022-08-24T02:54:11;2.75;2.75;2.00
72467;PMS3003;60626;43.582;1.470;2022-08-24T02:56:39;2.50;2.50;2.00
72467;PMS3003;60626;43.582;1.470;2022-08-24T02:59:06;2.50;2.50;2.25
72467;PMS3003;60626;43.582;1.470;2022-08-24T03:01:32;1.75;1.75;1.25
72467;PMS3003;60626;43.582;1.470;2022-08-24T03:03:59;3.00;3.00;2.00
72467;PMS3003;60626;43.582;1.470;2022-08-24T03:06:26;1.25;1.25;1.00
72467;PMS3003;60626;43.582;1.470;2022-08-24T03:08:53;2.00;2.00;2.00
72467;PMS3003;60626;43.582;1.470;2022-08-24T03:11:22;3.00;2.00;1.50
72467;PMS3003;60626;43.582;1.470;2022-08-24T03:13:53;4.00;4.00;2.75
72467;PMS3003;60626;43.582;1.470;2022-08-24T03:16:21;3.75;3.75;3.75
72467;PMS3003;60626;43.582;1.470;2022-08-24T03:18:48;3.00;3.00;3.00
72467;PMS3003;60626;43.582;1.470;2022-08-24T03:21:15;4.00;4.00;3.75
72467;PMS3003;60626;43.582;1.470;2022-08-24T03:23:42;4.00;4.00;3.75
72467;PMS3003;60626;43.582;1.470;2022-08-24T03:26:09;5.00;5.00;4.00
72467;PMS3003;60626;43.582;1.470;2022-08-24T03:28:36;5.00;3.00;2.50
72467;PMS3003;60626;43.582;1.470;2022-08-24T03:31:03;3.00;3.00;2.00
72467;PMS3003;60626;43.582;1.470;2022-08-24T03:33:30;4.25;4.25;3.00
72467;PMS3003;60626;43.582;1.470;2022-08-24T03:35:57;3.00;3.00;2.50
72467;PMS3003;60626;43.582;1.470;2022-08-24T03:38:24;4.25;3.00;2.00
72467;PMS3003;60626;43.582;1.470;2022-08-24T03:40:51;2.75;2.75;2.25
72467;PMS3003;60626;43.582;1.470;2022-08-24T03:43:18;2.75;2.50;2.00
72467;PMS3003;60626;43.582;1.470;2022-08-24T03:46:04;3.00;3.00;2.50
72467;PMS3003;60626;43.582;1.470;2022-08-24T03:48:33;3.00;2.00;1.25
72467;PMS3003;60626;43.582;1.470;2022-08-24T03:51:00;3.00;3.00;2.25
72467;PMS3003;60626;43.582;1.470;2022-08-24T03:53:27;4.00;3.00;2.00
72467;PMS3003;60626;43.582;1.470;2022-08-24T03:55:54;3.75;3.00;3.00
72467;PMS3003;60626;43.582;1.470;2022-08-24T03:58:20;2.25;2.25;2.00
72467;PMS3003;60626;43.582;1.470;2022-08-24T04:00:47;2.00;2.00;2.00
72467;PMS3003;60626;43.582;1.470;2022-08-24T04:03:14;3.00;3.00;3.00
72467;PMS3003;60626;43.582;1.470;2022-08-24T04:05:41;2.00;2.00;2.00
72467;PMS3003;60626;43.582;1.470;2022-08-24T04:08:08;3.25;2.00;2.00
72467;PMS3003;60626;43.582;1.470;2022-08-24T04:10:35;2.00;2.00;2.00
72467;PMS3003;60626;43.582;1.470;2022-08-24T04:13:03;3.00;3.00;3.00
72467;PMS3003;60626;43.582;1.470;2022-08-24T04:15:37;2.00;2.00;2.00
72467;PMS3003;60626;43.582;1.470;2022-08-24T04:18:05;5.00;3.00;3.00
72467;PMS3003;60626;43.582;1.470;2022-08-24T04:20:36;2.25;2.25;2.00
72467;PMS3003;60626;43.582;1.470;2022-08-24T04:23:04;2.25;2.00;2.00
72467;PMS3003;60626;43.582;1.470;2022-08-24T04:25:39;2.25;2.25;2.00
72467;PMS3003;60626;43.582;1.470;2022-08-24T04:28:06;3.00;3.00;3.00
72467;PMS3003;60626;43.582;1.470;2022-08-24T04:30:33;2.50;2.50;2.00
72467;PMS3003;60626;43.582;1.470;2022-08-24T04:33:00;2.00;2.00;2.00
72467;PMS3003;60626;43.582;1.470;2022-08-24T04:35:27;1.75;1.75;1.75
72467;PMS3003;60626;43.582;1.470;2022-08-24T04:37:53;1.25;1.25;1.00
72467;PMS3003;60626;43.582;1.470;2022-08-24T04:40:20;2.75;2.75;2.25
72467;PMS3003;60626;43.582;1.470;2022-08-24T04:42:47;2.25;2.25;2.25
72467;PMS3003;60626;43.582;1.470;2022-08-24T04:45:14;2.00;2.00;2.00
72467;PMS3003;60626;43.582;1.470;2022-08-24T04:47:42;3.00;3.00;2.50
72467;PMS3003;60626;43.582;1.470;2022-08-24T04:50:10;3.00;3.00;3.00
72467;PMS3003;60626;43.582;1.470;2022-08-24T04:52:37;3.50;2.00;1.50
72467;PMS3003;60626;43.582;1.470;2022-08-24T04:55:03;3.00;3.00;2.75
72467;PMS3003;60626;43.582;1.470;2022-08-24T04:57:32;2.50;2.50;2.00
72467;PMS3003;60626;43.582;1.470;2022-08-24T05:00:00;3.00;3.00;3.00
72467;PMS3003;60626;43.582;1.470;2022-08-24T05:02:28;2.00;2.00;2.00
72467;PMS3003;60626;43.582;1.470;2022-08-24T05:04:56;2.00;2.00;2.00
72467;PMS3003;60626;43.582;1.470;2022-08-24T05:07:24;2.00;2.00;1.50
72467;PMS3003;60626;43.582;1.470;2022-08-24T05:09:51;3.00;3.00;2.00
72467;PMS3003;60626;43.582;1.470;2022-08-24T05:12:19;3.25;3.25;3.00
72467;PMS3003;60626;43.582;1.470;2022-08-24T05:14:46;4.00;3.00;2.75
72467;PMS3003;60626;43.582;1.470;2022-08-24T05:17:12;3.00;3.00;3.00
72467;PMS3003;60626;43.582;1.470;2022-08-24T05:19:39;4.00;4.00;3.00
72467;PMS3003;60626;43.582;1.470;2022-08-24T05:22:06;5.75;5.00;4.00
72467;PMS3003;60626;43.582;1.470;2022-08-24T05:24:33;5.50;4.25;3.50
72467;PMS3003;60626;43.582;1.470;2022-08-24T05:27:00;4.75;4.75;4.00
72467;PMS3003;60626;43.582;1.470;2022-08-24T05:29:26;4.00;4.00;3.75
72467;PMS3003;60626;43.582;1.470;2022-08-24T05:31:53;6.00;4.00;4.00
72467;PMS3003;60626;43.582;1.470;2022-08-24T05:34:20;4.00;4.00;3.50
72467;PMS3003;60626;43.582;1.470;2022-08-24T05:36:49;3.00;3.00;3.00
72467;PMS3003;60626;43.582;1.470;2022-08-24T05:39:15;4.00;4.00;3.75
72467;PMS3003;60626;43.582;1.470;2022-08-24T05:41:42;4.00;4.00;4.00
72467;PMS3003;60626;43.582;1.470;2022-08-24T05:44:11;4.00;4.00;3.00
72467;PMS3003;60626;43.582;1.470;2022-08-24T05:46:39;3.75;3.75;3.75
72467;PMS3003;60626;43.582;1.470;2022-08-24T05:49:06;4.00;4.00;3.00
72467;PMS3003;60626;43.582;1.470;2022-08-24T05:51:34;3.75;3.75;3.00
72467;PMS3003;60626;43.582;1.470;2022-08-24T05:54:01;4.25;4.25;4.00
72467;PMS3003;60626;43.582;1.470;2022-08-24T05:56:30;3.00;3.00;2.50
72467;PMS3003;60626;43.582;1.470;2022-08-24T05:58:57;9.00;6.25;5.00
72467;PMS3003;60626;43.582;1.470;2022-08-24T06:01:24;3.75;3.75;3.25
72467;PMS3003;60626;43.582;1.470;2022-08-24T06:03:52;4.00;4.00;4.00
72467;PMS3003;60626;43.582;1.470;2022-08-24T06:06:21;4.00;4.00;4.00
72467;PMS3003;60626;43.582;1.470;2022-08-24T06:08:49;5.00;5.00;5.00
72467;PMS3003;60626;43.582;1.470;2022-08-24T06:11:31;5.00;5.00;5.00
72467;PMS3003;60626;43.582;1.470;2022-08-24T06:14:04;7.75;4.25;4.00
72467;PMS3003;60626;43.582;1.470;2022-08-24T06:16:38;5.50;5.00;3.75
72467;PMS3003;60626;43.582;1.470;2022-08-24T06:19:07;6.25;5.00;4.00
72467;PMS3003;60626;43.582;1.470;2022-08-24T06:21:34;7.75;4.75;4.00
72467;PMS3003;60626;43.582;1.470;2022-08-24T06:24:03;7.25;5.00;4.75
72467;PMS3003;60626;43.582;1.470;2022-08-24T06:26:30;5.50;5.50;5.00
72467;PMS3003;60626;43.582;1.470;2022-08-24T06:29:17;4.00;3.75;3.25
72467;PMS3003;60626;43.582;1.470;2022-08-24T06:31:45;3.00;3.00;3.00
72467;PMS3003;60626;43.582;1.470;2022-08-24T06:34:19;3.25;3.25;2.25
72467;PMS3003;60626;43.582;1.470;2022-08-24T06:36:46;3.50;3.50;3.25
72467;PMS3003;60626;43.582;1.470;2022-08-24T06:39:13;4.00;4.00;3.00
72467;PMS3003;60626;43.582;1.470;2022-08-24T06:41:41;5.50;4.00;4.00
72467;PMS3003;60626;43.582;1.470;2022-08-24T06:44:08;5.25;4.75;4.00
72467;PMS3003;60626;43.582;1.470;2022-08-24T06:46:35;4.25;3.50;3.00
72467;PMS3003;60626;43.582;1.470;2022-08-24T06:49:02;4.00;4.00;3.00
72467;PMS3003;60626;43.582;1.470;2022-08-24T06:51:29;3.25;3.25;3.00
72467;PMS3003;60626;43.582;1.470;2022-08-24T06:53:57;6.75;4.00;3.00
72467;PMS3003;60626;43.582;1.470;2022-08-24T06:56:24;5.00;5.00;4.00
72467;PMS3003;60626;43.582;1.470;2022-08-24T06:58:51;3.25;3.25;3.25
72467;PMS3003;60626;43.582;1.470;2022-08-24T07:01:22;4.75;4.75;4.00
72467;PMS3003;60626;43.582;1.470;2022-08-24T07:03:50;5.75;4.50;4.00
72467;PMS3003;60626;43.582;1.470;2022-08-24T07:06:18;4.75;3.50;3.00
72467;PMS3003;60626;43.582;1.470;2022-08-24T07:08:45;3.50;3.50;3.00
72467;PMS3003;60626;43.582;1.470;2022-08-24T07:11:12;2.50;2.50;2.00
72467;PMS3003;60626;43.582;1.470;2022-08-24T07:13:40;3.00;3.00;3.00
72467;PMS3003;60626;43.582;1.470;2022-08-24T07:16:07;6.00;4.50;3.75
72467;PMS3003;60626;43.582;1.470;2022-08-24T07:18:35;3.00;3.00;2.50
72467;PMS3003;60626;43.582;1.470;2022-08-24T07:21:06;4.00;4.00;3.00
72467;PMS3003;60626;43.582;1.470;2022-08-24T07:23:33;3.00;3.00;2.50
72467;PMS3003;60626;43.582;1.470;2022-08-24T07:26:09;3.00;3.00;3.00
72467;PMS3003;60626;43.582;1.470;2022-08-24T07:28:47;5.00;3.25;3.00
72467;PMS3003;60626;43.582;1.470;2022-08-24T07:31:17;4.50;4.00;3.00
72467;PMS3003;60626;43.582;1.470;2022-08-24T07:33:44;4.00;4.00;4.00
72467;PMS3003;60626;43.582;1.470;2022-08-24T07:36:10;5.75;4.00;3.75
72467;PMS3003;60626;43.582;1.470;2022-08-24T07:38:48;3.00;3.00;2.75
72467;PMS3003;60626;43.582;1.470;2022-08-24T07:41:18;3.75;3.75;3.50
72467;PMS3003;60626;43.582;1.470;2022-08-24T07:44:08;3.25;3.25;3.00
72467;PMS3003;60626;43.582;1.470;2022-08-24T07:46:38;2.00;2.00;1.50
72467;PMS3003;60626;43.582;1.470;2022-08-24T07:49:06;4.25;4.25;3.25
72467;PMS3003;60626;43.582;1.470;2022-08-24T07:51:53;5.25;4.00;4.00
72467;PMS3003;60626;43.582;1.470;2022-08-24T07:54:20;4.25;4.25;4.00
72467;PMS3003;60626;43.582;1.470;2022-08-24T07:56:47;4.50;3.00;3.00
72467;PMS3003;60626;43.582;1.470;2022-08-24T07:59:15;3.75;3.75;3.00
72467;PMS3003;60626;43.582;1.470;2022-08-24T08:01:42;0.25;0.25;0.25
72467;PMS3003;60626;43.582;1.470;2022-08-24T08:04:09;4.00;4.00;3.00
72467;PMS3003;60626;43.582;1.470;2022-08-24T08:06:36;4.00;4.00;3.50
72467;PMS3003;60626;43.582;1.470;2022-08-24T08:09:03;5.75;5.75;5.00
72467;PMS3003;60626;43.582;1.470;2022-08-24T08:11:31;6.75;5.00;4.00
72467;PMS3003;60626;43.582;1.470;2022-08-24T08:13:58;5.25;5.25;4.75
72467;PMS3003;60626;43.582;1.470;2022-08-24T08:16:25;7.25;5.50;4.50
72467;PMS3003;60626;43.582;1.470;2022-08-24T08:18:53;5.50;4.00;3.00
72467;PMS3003;60626;43.582;1.470;2022-08-24T08:21:39;6.75;5.00;5.00
72467;PMS3003;60626;43.582;1.470;2022-08-24T08:24:25;5.25;5.25;5.00
72467;PMS3003;60626;43.582;1.470;2022-08-24T08:26:52;4.75;4.00;4.00
72467;PMS3003;60626;43.582;1.470;2022-08-24T08:29:19;7.00;4.50;4.00
72467;PMS3003;60626;43.582;1.470;2022-08-24T08:31:46;5.00;3.50;3.00
72467;PMS3003;60626;43.582;1.470;2022-08-24T08:34:13;6.00;4.75;4.00
72467;PMS3003;60626;43.582;1.470;2022-08-24T08:36:40;3.50;3.50;3.50
72467;PMS3003;60626;43.582;1.470;2022-08-24T08:39:07;3.75;3.75;3.25
72467;PMS3003;60626;43.582;1.470;2022-08-24T08:41:41;3.00;3.00;2.75
72467;PMS3003;60626;43.582;1.470;2022-08-24T08:47:09;4.50;3.00;3.00
72467;PMS3003;60626;43.582;1.470;2022-08-24T08:58:44;2.75;2.75;2.75
72467;PMS3003;60626;43.582;1.470;2022-08-24T09:04:22;3.50;3.50;3.00
72467;PMS3003;60626;43.582;1.470;2022-08-24T09:12:24;3.00;3.00;3.00
72467;PMS3003;60626;43.582;1.470;2022-08-24T09:20:47;2.50;2.50;2.50
72467;PMS3003;60626;43.582;1.470;2022-08-24T09:26:01;2.50;2.50;2.00
72467;PMS3003;60626;43.582;1.470;2022-08-24T09:28:38;4.00;2.00;2.00
72467;PMS3003;60626;43.582;1.470;2022-08-24T09:33:56;3.25;3.25;3.25
72467;PMS3003;60626;43.582;1.470;2022-08-24T09:36:38;2.50;2.50;2.00
72467;PMS3003;60626;43.582;1.470;2022-08-24T09:39:36;4.00;3.00;3.00
72467;PMS3003;60626;43.582;1.470;2022-08-24T10:30:39;1.50;1.00;1.00
72467;PMS3003;60626;43.582;1.470;2022-08-24T10:38:50;1.25;1.25;1.00
72467;PMS3003;60626;43.582;1.470;2022-08-24T10:47:29;1.00;1.00;1.00
72467;PMS3003;60626;43.582;1.470;2022-08-24T10:53:04;1.00;1.00;1.00
72467;PMS3003;60626;43.582;1.470;2022-08-24T10:55:40;1.00;1.00;1.00
72467;PMS3003;60626;43.582;1.470;2022-08-24T11:06:22;1.00;1.00;1.00
72467;PMS3003;60626;43.582;1.470;2022-08-24T11:08:52;1.00;1.00;1.00
72467;PMS3003;60626;43.582;1.470;2022-08-24T11:11:22;1.00;1.00;1.00
72467;PMS3003;60626;43.582;1.470;2022-08-24T11:16:40;1.00;1.00;1.00
72467;PMS3003;60626;43.582;1.470;2022-08-24T11:19:10;0.25;0.25;0.25
72467;PMS3003;60626;43.582;1.470;2022-08-24T11:21:43;0.50;0.50;0.25
72467;PMS3003;60626;43.582;1.470;2022-08-24T11:24:23;1.00;1.00;0.50
72467;PMS3003;60626;43.582;1.470;2022-08-24T11:29:25;0.50;0.50;0.50
72467;PMS3003;60626;43.582;1.470;2022-08-24T11:32:25;1.00;1.00;1.00
72467;PMS3003;60626;43.582;1.470;2022-08-24T11:37:53;1.50;1.50;1.00
72467;PMS3003;60626;43.582;1.470;2022-08-24T11:40:25;2.25;2.00;2.00
72467;PMS3003;60626;43.582;1.470;2022-08-24T11:43:02;1.00;1.00;1.00
72467;PMS3003;60626;43.582;1.470;2022-08-24T11:45:42;2.75;2.00;2.00
72467;PMS3003;60626;43.582;1.470;2022-08-24T11:48:33;2.00;2.00;2.00
72467;PMS3003;60626;43.582;1.470;2022-08-24T11:57:01;2.50;2.00;1.75
72467;PMS3003;60626;43.582;1.470;2022-08-24T12:18:21;2.25;1.50;1.50
72467;PMS3003;60626;43.582;1.470;2022-08-24T12:20:53;1.25;1.25;1.00
72467;PMS3003;60626;43.582;1.470;2022-08-24T12:28:40;2.00;2.00;1.75
72467;PMS3003;60626;43.582;1.470;2022-08-24T12:31:20;1.00;1.00;1.00
72467;PMS3003;60626;43.582;1.470;2022-08-24T12:34:03;2.00;2.00;2.00
72467;PMS3003;60626;43.582;1.470;2022-08-24T12:39:21;2.00;2.00;2.00
72467;PMS3003;60626;43.582;1.470;2022-08-24T12:42:00;1.00;1.00;1.00
72467;PMS3003;60626;43.582;1.470;2022-08-24T12:44:44;1.00;1.00;1.00
72467;PMS3003;60626;43.582;1.470;2022-08-24T12:50:01;2.00;2.00;2.00
72467;PMS3003;60626;43.582;1.470;2022-08-24T12:52:57;1.00;1.00;1.00
72467;PMS3003;60626;43.582;1.470;2022-08-24T12:58:49;2.50;2.00;1.75
72467;PMS3003;60626;43.582;1.470;2022-08-24T13:01:25;2.50;2.00;1.75
72467;PMS3003;60626;43.582;1.470;2022-08-24T13:11:59;2.00;2.00;1.00
72467;PMS3003;60626;43.582;1.470;2022-08-24T13:17:58;2.50;2.50;2.00
72467;PMS3003;60626;43.582;1.470;2022-08-24T13:44:28;1.00;1.00;1.00
72467;PMS3003;60626;43.582;1.470;2022-08-24T13:55:08;1.00;1.00;1.00
72467;PMS3003;60626;43.582;1.470;2022-08-24T14:09:54;1.00;1.00;1.00
72467;PMS3003;60626;43.582;1.470;2022-08-24T14:17:44;0.25;0.25;0.00
72467;PMS3003;60626;43.582;1.470;2022-08-24T14:51:30;0.00;0.00;0.00
72467;PMS3003;60626;43.582;1.470;2022-08-24T14:54:30;0.00;0.00;0.00
72467;PMS3003;60626;43.582;1.470;2022-08-24T15:05:38;0.50;0.50;0.50
72467;PMS3003;60626;43.582;1.470;2022-08-24T15:10:57;0.50;0.50;0.00
72467;PMS3003;60626;43.582;1.470;2022-08-24T15:17:26;0.25;0.25;0.00
72467;PMS3003;60626;43.582;1.470;2022-08-24T15:19:34;1.00;1.00;1.00
72467;PMS3003;60626;43.582;1.470;2022-08-24T15:22:08;1.75;0.00;0.00
72467;PMS3003;60626;43.582;1.470;2022-08-24T15:25:05;1.00;1.00;1.00
72467;PMS3003;60626;43.582;1.470;2022-08-24T15:32:53;0.00;0.00;0.00
72467;PMS3003;60626;43.582;1.470;2022-08-24T15:35:31;0.00;0.00;0.00
72467;PMS3003;60626;43.582;1.470;2022-08-24T15:41:02;1.00;1.00;0.25
72467;PMS3003;60626;43.582;1.470;2022-08-24T15:43:29;0.00;0.00;0.00
72467;PMS3003;60626;43.582;1.470;2022-08-24T15:45:57;0.25;0.25;0.25
72467;PMS3003;60626;43.582;1.470;2022-08-24T15:48:24;1.00;1.00;1.00
72467;PMS3003;60626;43.582;1.470;2022-08-24T15:50:53;2.00;2.00;2.00
72467;PMS3003;60626;43.582;1.470;2022-08-24T15:53:28;1.00;1.00;1.00
72467;PMS3003;60626;43.582;1.470;2022-08-24T15:58:46;0.00;0.00;0.00
72467;PMS3003;60626;43.582;1.470;2022-08-24T16:04:09;0.00;0.00;0.00
72467;PMS3003;60626;43.582;1.470;2022-08-24T16:06:40;0.25;0.25;0.00
72467;PMS3003;60626;43.582;1.470;2022-08-24T16:11:46;0.00;0.00;0.00
72467;PMS3003;60626;43.582;1.470;2022-08-24T16:14:31;1.75;0.75;0.75
72467;PMS3003;60626;43.582;1.470;2022-08-24T16:19:53;0.50;0.50;0.50
72467;PMS3003;60626;43.582;1.470;2022-08-24T16:22:33;1.00;1.00;0.50
72467;PMS3003;60626;43.582;1.470;2022-08-24T16:25:20;0.50;0.50;0.50
72467;PMS3003;60626;43.582;1.470;2022-08-24T16:30:55;1.00;1.00;1.00
72467;PMS3003;60626;43.582;1.470;2022-08-24T16:33:34;1.00;1.00;0.25
72467;PMS3003;60626;43.582;1.470;2022-08-24T16:36:10;1.00;1.00;0.75
72467;PMS3003;60626;43.582;1.470;2022-08-24T16:38:49;0.75;0.75;0.75
72467;PMS3003;60626;43.582;1.470;2022-08-24T16:41:18;1.00;1.00;0.00
72467;PMS3003;60626;43.582;1.470;2022-08-24T16:43:47;1.00;1.00;1.00
72467;PMS3003;60626;43.582;1.470;2022-08-24T16:46:18;1.00;1.00;0.00
72467;PMS3003;60626;43.582;1.470;2022-08-24T16:48:46;1.00;1.00;1.00
72467;PMS3003;60626;43.582;1.470;2022-08-24T16:51:13;0.00;0.00;0.00
72467;PMS3003;60626;43.582;1.470;2022-08-24T16:53:40;0.00;0.00;0.00
72467;PMS3003;60626;43.582;1.470;2022-08-24T16:56:06;0.00;0.00;0.00
72467;PMS3003;60626;43.582;1.470;2022-08-24T16:58:34;1.75;1.00;1.00
72467;PMS3003;60626;43.582;1.470;2022-08-24T17:01:02;1.00;1.00;0.00
72467;PMS3003;60626;43.582;1.470;2022-08-24T17:03:30;0.50;0.50;0.50
72467;PMS3003;60626;43.582;1.470;2022-08-24T17:05:57;1.00;1.00;1.00
72467;PMS3003;60626;43.582;1.470;2022-08-24T17:08:25;0.00;0.00;0.00
72467;PMS3003;60626;43.582;1.470;2022-08-24T17:10:52;2.00;1.00;1.00
72467;PMS3003;60626;43.582;1.470;2022-08-24T17:13:20;1.00;1.00;1.00
72467;PMS3003;60626;43.582;1.470;2022-08-24T17:16:08;1.00;1.00;1.00
72467;PMS3003;60626;43.582;1.470;2022-08-24T17:18:37;1.00;1.00;1.00
72467;PMS3003;60626;43.582;1.470;2022-08-24T17:21:04;1.00;1.00;1.00
72467;PMS3003;60626;43.582;1.470;2022-08-24T17:23:31;1.00;1.00;1.00
72467;PMS3003;60626;43.582;1.470;2022-08-24T17:25:59;1.00;1.00;1.00
72467;PMS3003;60626;43.582;1.470;2022-08-24T17:28:26;0.50;0.50;0.50
72467;PMS3003;60626;43.582;1.470;2022-08-24T17:30:54;2.00;2.00;1.75
72467;PMS3003;60626;43.582;1.470;2022-08-24T17:33:21;1.00;1.00;1.00
72467;PMS3003;60626;43.582;1.470;2022-08-24T17:35:48;0.00;0.00;0.00
72467;PMS3003;60626;43.582;1.470;2022-08-24T17:38:20;2.00;2.00;1.25
72467;PMS3003;60626;43.582;1.470;2022-08-24T17:40:46;1.00;1.00;1.00
72467;PMS3003;60626;43.582;1.470;2022-08-24T17:43:15;2.00;2.00;2.00
72467;PMS3003;60626;43.582;1.470;2022-08-24T17:45:41;2.00;2.00;1.75
72467;PMS3003;60626;43.582;1.470;2022-08-24T17:48:09;1.25;1.25;1.00
72467;PMS3003;60626;43.582;1.470;2022-08-24T17:50:41;2.25;2.25;2.00
72467;PMS3003;60626;43.582;1.470;2022-08-24T17:53:08;2.25;2.25;1.75
72467;PMS3003;60626;43.582;1.470;2022-08-24T17:55:35;1.75;1.75;1.00
72467;PMS3003;60626;43.582;1.470;2022-08-24T17:58:02;2.75;2.75;2.50
72467;PMS3003;60626;43.582;1.470;2022-08-24T18:00:28;3.25;3.25;3.00
72467;PMS3003;60626;43.582;1.470;2022-08-24T18:02:55;3.00;2.75;2.50
72467;PMS3003;60626;43.582;1.470;2022-08-24T18:05:22;3.00;3.00;2.75
72467;PMS3003;60626;43.582;1.470;2022-08-24T18:07:49;2.50;2.50;2.00
72467;PMS3003;60626;43.582;1.470;2022-08-24T18:10:24;2.00;2.00;2.00
72467;PMS3003;60626;43.582;1.470;2022-08-24T18:12:53;2.75;2.75;2.25
72467;PMS3003;60626;43.582;1.470;2022-08-24T18:15:23;3.50;2.75;2.00
72467;PMS3003;60626;43.582;1.470;2022-08-24T18:18:02;3.00;3.00;3.00
72467;PMS3003;60626;43.582;1.470;2022-08-24T18:20:34;4.00;3.00;3.00
72467;PMS3003;60626;43.582;1.470;2022-08-24T18:23:03;4.00;3.00;3.00
72467;PMS3003;60626;43.582;1.470;2022-08-24T18:25:38;3.00;3.00;2.50
72467;PMS3003;60626;43.582;1.470;2022-08-24T18:28:09;3.50;3.50;3.25
72467;PMS3003;60626;43.582;1.470;2022-08-24T18:30:36;3.50;3.25;3.25
72467;PMS3003;60626;43.582;1.470;2022-08-24T18:33:06;4.00;4.00;3.00
72467;PMS3003;60626;43.582;1.470;2022-08-24T18:35:33;2.75;2.75;2.75
72467;PMS3003;60626;43.582;1.470;2022-08-24T18:38:00;3.50;3.50;3.00
72467;PMS3003;60626;43.582;1.470;2022-08-24T18:40:27;2.00;2.00;1.25
72467;PMS3003;60626;43.582;1.470;2022-08-24T18:42:58;3.00;3.00;2.50
72467;PMS3003;60626;43.582;1.470;2022-08-24T18:45:25;3.00;3.00;2.75
72467;PMS3003;60626;43.582;1.470;2022-08-24T18:47:55;4.00;4.00;4.00
72467;PMS3003;60626;43.582;1.470;2022-08-24T18:50:22;6.00;5.00;4.00
72467;PMS3003;60626;43.582;1.470;2022-08-24T18:52:49;3.50;3.50;3.00
72467;PMS3003;60626;43.582;1.470;2022-08-24T18:55:16;4.50;4.50;4.00
72467;PMS3003;60626;43.582;1.470;2022-08-24T18:57:43;4.00;4.00;4.00
72467;PMS3003;60626;43.582;1.470;2022-08-24T19:00:10;5.50;4.00;3.50
72467;PMS3003;60626;43.582;1.470;2022-08-24T19:02:37;4.00;4.00;3.00
72467;PMS3003;60626;43.582;1.470;2022-08-24T19:05:10;3.00;2.00;1.25
72467;PMS3003;60626;43.582;1.470;2022-08-24T19:07:41;4.00;4.00;3.25
72467;PMS3003;60626;43.582;1.470;2022-08-24T19:10:12;3.00;3.00;3.00
72467;PMS3003;60626;43.582;1.470;2022-08-24T19:12:42;4.50;3.75;3.50
72467;PMS3003;60626;43.582;1.470;2022-08-24T19:15:12;4.00;4.00;4.00
72467;PMS3003;60626;43.582;1.470;2022-08-24T19:18:01;3.75;3.75;3.50
72467;PMS3003;60626;43.582;1.470;2022-08-24T19:20:30;4.00;4.00;4.00
72467;PMS3003;60626;43.582;1.470;2022-08-24T19:22:59;4.00;4.00;3.75
72467;PMS3003;60626;43.582;1.470;2022-08-24T19:25:31;5.00;5.00;4.00
72467;PMS3003;60626;43.582;1.470;2022-08-24T19:28:00;5.00;5.00;4.00